sensor_id;sensor_type;location;lat;lon;timestamp;temperature;humidity
15906;DHT22;8051;50.820;4.884;2023-07-30T00:01:00;16.50;99.90
15906;DHT22;8051;50.820;4.884;2023-07-30T00:03:27;16.50;99.90
15906;DHT22;8051;50.820;4.884;2023-07-30T00:05:55;16.40;99.90
15906;DHT22;8051;50.820;4.884;2023-07-30T00:08:23;16.40;99.90
15906;DHT22;8051;50.820;4.884;2023-07-30T00:10:52;16.40;99.90
15906;DHT22;8051;50.820;4.884;2023-07-30T00:13:19;16.30;99.90
15906;DHT22;8051;50.820;4.884;2023-07-30T00:15:47;16.30;99.90
15906;DHT22;8051;50.820;4.884;2023-07-30T00:18:15;16.30;99.90
15906;DHT22;8051;50.820;4.884;2023-07-30T00:20:43;16.30;99.90
15906;DHT22;8051;50.820;4.884;2023-07-30T00:23:10;16.30;99.90
15906;DHT22;8051;50.820;4.884;2023-07-30T00:25:37;16.30;99.90
15906;DHT22;8051;50.820;4.884;2023-07-30T00:28:06;16.20;99.90
15906;DHT22;8051;50.820;4.884;2023-07-30T00:30:33;16.10;99.90
15906;DHT22;8051;50.820;4.884;2023-07-30T00:33:01;16.10;99.90
15906;DHT22;8051;50.820;4.884;2023-07-30T00:35:28;16.00;99.90
15906;DHT22;8051;50.820;4.884;2023-07-30T00:37:56;15.90;99.90
15906;DHT22;8051;50.820;4.884;2023-07-30T00:40:23;15.90;99.90
15906;DHT22;8051;50.820;4.884;2023-07-30T00:42:51;15.80;99.90
15906;DHT22;8051;50.820;4.884;2023-07-30T00:45:20;15.80;99.90
15906;DHT22;8051;50.820;4.884;2023-07-30T00:47:47;15.80;99.90
15906;DHT22;8051;50.820;4.884;2023-07-30T00:50:15;15.70;99.90
15906;DHT22;8051;50.820;4.884;2023-07-30T00:52:44;15.70;99.90
15906;DHT22;8051;50.820;4.884;2023-07-30T00:55:11;15.60;99.90
15906;DHT22;8051;50.820;4.884;2023-07-30T00:57:39;15.70;99.90
15906;DHT22;8051;50.820;4.884;2023-07-30T01:00:09;15.60;99.90
15906;DHT22;8051;50.820;4.884;2023-07-30T01:02:38;15.70;99.90
15906;DHT22;8051;50.820;4.884;2023-07-30T01:05:06;15.70;99.90
15906;DHT22;8051;50.820;4.884;2023-07-30T01:07:33;15.80;99.90
15906;DHT22;8051;50.820;4.884;2023-07-30T01:10:01;15.90;99.90
15906;DHT22;8051;50.820;4.884;2023-07-30T01:12:30;16.00;99.90
15906;DHT22;8051;50.820;4.884;2023-07-30T01:14:58;16.00;99.90
15906;DHT22;8051;50.820;4.884;2023-07-30T01:17:27;16.00;99.90
15906;DHT22;8051;50.820;4.884;2023-07-30T01:19:56;16.10;99.90
15906;DHT22;8051;50.820;4.884;2023-07-30T01:22:24;16.20;99.90
15906;DHT22;8051;50.820;4.884;2023-07-30T01:24:52;16.20;99.90
15906;DHT22;8051;50.820;4.884;2023-07-30T01:27:23;16.20;99.90
15906;DHT22;8051;50.820;4.884;2023-07-30T01:29:52;16.20;99.90
15906;DHT22;8051;50.820;4.884;2023-07-30T01:32:25;16.20;99.90
15906;DHT22;8051;50.820;4.884;2023-07-30T01:34:59;16.20;99.90
15906;DHT22;8051;50.820;4.884;2023-07-30T01:37:29;16.30;99.90
15906;DHT22;8051;50.820;4.884;2023-07-30T01:39:57;16.30;99.90
15906;DHT22;8051;50.820;4.884;2023-07-30T01:42:29;16.20;99.90
15906;DHT22;8051;50.820;4.884;2023-07-30T01:44:56;16.20;99.90
15906;DHT22;8051;50.820;4.884;2023-07-30T01:47:24;16.20;99.90
15906;DHT22;8051;50.820;4.884;2023-07-30T01:49:51;16.20;99.90
15906;DHT22;8051;50.820;4.884;2023-07-30T01:52:19;16.20;99.90
15906;DHT22;8051;50.820;4.884;2023-07-30T01:54:47;16.20;99.90
15906;DHT22;8051;50.820;4.884;2023-07-30T01:57:15;16.20;99.90
15906;DHT22;8051;50.820;4.884;2023-07-30T01:59:42;16.20;99.90
15906;DHT22;8051;50.820;4.884;2023-07-30T02:02:10;16.30;99.90
15906;DHT22;8051;50.820;4.884;2023-07-30T02:04:37;16.30;99.90
15906;DHT22;8051;50.820;4.884;2023-07-30T02:07:05;16.30;99.90
15906;DHT22;8051;50.820;4.884;2023-07-30T02:09:32;16.30;99.90
15906;DHT22;8051;50.820;4.884;2023-07-30T02:12:01;16.30;99.90
15906;DHT22;8051;50.820;4.884;2023-07-30T02:14:29;16.30;99.90
15906;DHT22;8051;50.820;4.884;2023-07-30T02:16:56;16.30;99.90
15906;DHT22;8051;50.820;4.884;2023-07-30T02:19:23;16.30;99.90
15906;DHT22;8051;50.820;4.884;2023-07-30T02:21:51;16.20;99.90
15906;DHT22;8051;50.820;4.884;2023-07-30T02:24:18;16.20;99.90
15906;DHT22;8051;50.820;4.884;2023-07-30T02:26:46;16.20;99.90
15906;DHT22;8051;50.820;4.884;2023-07-30T02:29:15;16.10;99.90
15906;DHT22;8051;50.820;4.884;2023-07-30T02:31:43;16.10;99.90
15906;DHT22;8051;50.820;4.884;2023-07-30T02:34:10;16.10;99.90
15906;DHT22;8051;50.820;4.884;2023-07-30T02:36:38;16.00;99.90
15906;DHT22;8051;50.820;4.884;2023-07-30T02:39:05;16.00;99.90
15906;DHT22;8051;50.820;4.884;2023-07-30T02:41:33;15.90;99.90
15906;DHT22;8051;50.820;4.884;2023-07-30T02:44:01;15.90;99.90
15906;DHT22;8051;50.820;4.884;2023-07-30T02:46:29;15.80;99.90
15906;DHT22;8051;50.820;4.884;2023-07-30T02:48:57;15.80;99.90
15906;DHT22;8051;50.820;4.884;2023-07-30T02:51:24;15.70;99.90
15906;DHT22;8051;50.820;4.884;2023-07-30T02:53:52;15.50;99.90
15906;DHT22;8051;50.820;4.884;2023-07-30T02:56:23;15.40;99.90
15906;DHT22;8051;50.820;4.884;2023-07-30T02:58:50;15.40;99.90
15906;DHT22;8051;50.820;4.884;2023-07-30T03:01:18;15.40;99.90
15906;DHT22;8051;50.820;4.884;2023-07-30T03:03:47;15.30;99.90
15906;DHT22;8051;50.820;4.884;2023-07-30T03:06:14;15.20;99.90
15906;DHT22;8051;50.820;4.884;2023-07-30T03:08:43;15.20;99.90
15906;DHT22;8051;50.820;4.884;2023-07-30T03:11:10;15.20;99.90
15906;DHT22;8051;50.820;4.884;2023-07-30T03:13:38;15.10;99.90
15906;DHT22;8051;50.820;4.884;2023-07-30T03:16:06;15.10;99.90
15906;DHT22;8051;50.820;4.884;2023-07-30T03:18:33;15.10;99.90
15906;DHT22;8051;50.820;4.884;2023-07-30T03:21:02;15.10;99.90
15906;DHT22;8051;50.820;4.884;2023-07-30T03:23:30;15.10;99.90
15906;DHT22;8051;50.820;4.884;2023-07-30T03:25:59;15.20;99.90
15906;DHT22;8051;50.820;4.884;2023-07-30T03:28:27;15.20;99.90
15906;DHT22;8051;50.820;4.884;2023-07-30T03:30:54;15.20;99.90
15906;DHT22;8051;50.820;4.884;2023-07-30T03:33:22;15.20;99.90
15906;DHT22;8051;50.820;4.884;2023-07-30T03:35:50;15.20;99.90
15906;DHT22;8051;50.820;4.884;2023-07-30T03:38:19;15.10;99.90
15906;DHT22;8051;50.820;4.884;2023-07-30T03:40:47;15.10;99.90
15906;DHT22;8051;50.820;4.884;2023-07-30T03:43:14;15.10;99.90
15906;DHT22;8051;50.820;4.884;2023-07-30T03:45:42;15.00;99.90
15906;DHT22;8051;50.820;4.884;2023-07-30T03:48:09;15.00;99.90
15906;DHT22;8051;50.820;4.884;2023-07-30T03:50:37;15.00;99.90
15906;DHT22;8051;50.820;4.884;2023-07-30T03:53:04;15.00;99.90
15906;DHT22;8051;50.820;4.884;2023-07-30T03:55:33;14.90;99.90
15906;DHT22;8051;50.820;4.884;2023-07-30T03:58:00;14.90;99.90
15906;DHT22;8051;50.820;4.884;2023-07-30T04:00:28;14.80;99.90
15906;DHT22;8051;50.820;4.884;2023-07-30T04:02:55;14.90;99.90
15906;DHT22;8051;50.820;4.884;2023-07-30T04:05:23;14.80;99.90
15906;DHT22;8051;50.820;4.884;2023-07-30T04:07:51;14.80;99.90
15906;DHT22;8051;50.820;4.884;2023-07-30T04:10:18;14.80;99.90
15906;DHT22;8051;50.820;4.884;2023-07-30T04:12:47;14.80;99.90
15906;DHT22;8051;50.820;4.884;2023-07-30T04:15:15;14.80;99.90
15906;DHT22;8051;50.820;4.884;2023-07-30T04:17:42;14.90;99.90
15906;DHT22;8051;50.820;4.884;2023-07-30T04:20:10;14.90;99.90
15906;DHT22;8051;50.820;4.884;2023-07-30T04:22:38;15.00;99.90
15906;DHT22;8051;50.820;4.884;2023-07-30T04:25:08;15.00;99.90
15906;DHT22;8051;50.820;4.884;2023-07-30T04:27:36;15.00;99.90
15906;DHT22;8051;50.820;4.884;2023-07-30T04:30:09;15.00;99.90
15906;DHT22;8051;50.820;4.884;2023-07-30T04:32:36;15.00;99.90
15906;DHT22;8051;50.820;4.884;2023-07-30T04:35:04;15.10;99.90
15906;DHT22;8051;50.820;4.884;2023-07-30T04:37:32;15.10;99.90
15906;DHT22;8051;50.820;4.884;2023-07-30T04:39:59;15.20;99.90
15906;DHT22;8051;50.820;4.884;2023-07-30T04:42:27;15.20;99.90
15906;DHT22;8051;50.820;4.884;2023-07-30T04:44:54;15.30;99.90
15906;DHT22;8051;50.820;4.884;2023-07-30T04:47:23;15.30;99.90
15906;DHT22;8051;50.820;4.884;2023-07-30T04:49:50;15.30;99.90
15906;DHT22;8051;50.820;4.884;2023-07-30T04:52:18;15.30;99.90
15906;DHT22;8051;50.820;4.884;2023-07-30T04:54:46;15.20;99.90
15906;DHT22;8051;50.820;4.884;2023-07-30T04:57:13;15.20;99.90
15906;DHT22;8051;50.820;4.884;2023-07-30T04:59:41;15.20;99.90
15906;DHT22;8051;50.820;4.884;2023-07-30T05:02:08;15.30;99.90
15906;DHT22;8051;50.820;4.884;2023-07-30T05:04:37;15.30;99.90
15906;DHT22;8051;50.820;4.884;2023-07-30T05:07:05;15.40;99.90
15906;DHT22;8051;50.820;4.884;2023-07-30T05:09:33;15.50;99.90
15906;DHT22;8051;50.820;4.884;2023-07-30T05:12:00;15.50;99.90
15906;DHT22;8051;50.820;4.884;2023-07-30T05:14:28;15.60;99.90
15906;DHT22;8051;50.820;4.884;2023-07-30T05:16:55;15.50;99.90
15906;DHT22;8051;50.820;4.884;2023-07-30T05:19:23;15.60;99.90
15906;DHT22;8051;50.820;4.884;2023-07-30T05:21:51;15.60;99.90
15906;DHT22;8051;50.820;4.884;2023-07-30T05:24:19;15.70;99.90
15906;DHT22;8051;50.820;4.884;2023-07-30T05:26:46;15.80;99.90
15906;DHT22;8051;50.820;4.884;2023-07-30T05:29:14;15.80;99.90
15906;DHT22;8051;50.820;4.884;2023-07-30T05:31:41;15.90;99.90
15906;DHT22;8051;50.820;4.884;2023-07-30T05:34:09;15.90;99.90
15906;DHT22;8051;50.820;4.884;2023-07-30T05:36:36;15.90;99.90
15906;DHT22;8051;50.820;4.884;2023-07-30T05:39:05;15.90;99.90
15906;DHT22;8051;50.820;4.884;2023-07-30T05:41:32;15.90;99.90
15906;DHT22;8051;50.820;4.884;2023-07-30T05:44:00;15.90;99.90
15906;DHT22;8051;50.820;4.884;2023-07-30T05:46:27;16.00;99.90
15906;DHT22;8051;50.820;4.884;2023-07-30T05:48:54;16.00;99.90
15906;DHT22;8051;50.820;4.884;2023-07-30T05:51:22;16.00;99.90
15906;DHT22;8051;50.820;4.884;2023-07-30T05:53:49;16.00;99.90
15906;DHT22;8051;50.820;4.884;2023-07-30T05:56:18;16.00;99.90
15906;DHT22;8051;50.820;4.884;2023-07-30T05:58:49;16.10;99.90
15906;DHT22;8051;50.820;4.884;2023-07-30T06:01:16;16.10;99.90
15906;DHT22;8051;50.820;4.884;2023-07-30T06:03:45;16.20;99.90
15906;DHT22;8051;50.820;4.884;2023-07-30T06:06:13;16.10;99.90
15906;DHT22;8051;50.820;4.884;2023-07-30T06:08:40;16.10;99.90
15906;DHT22;8051;50.820;4.884;2023-07-30T06:11:08;16.10;99.90
15906;DHT22;8051;50.820;4.884;2023-07-30T06:13:36;16.10;99.90
15906;DHT22;8051;50.820;4.884;2023-07-30T06:16:04;16.20;99.90
15906;DHT22;8051;50.820;4.884;2023-07-30T06:18:31;16.20;99.90
15906;DHT22;8051;50.820;4.884;2023-07-30T06:20:59;16.10;99.90
15906;DHT22;8051;50.820;4.884;2023-07-30T06:23:26;16.20;99.90
15906;DHT22;8051;50.820;4.884;2023-07-30T06:25:54;16.20;99.90
15906;DHT22;8051;50.820;4.884;2023-07-30T06:28:21;16.30;99.90
15906;DHT22;8051;50.820;4.884;2023-07-30T06:30:50;16.40;99.90
15906;DHT22;8051;50.820;4.884;2023-07-30T06:33:18;16.40;99.90
15906;DHT22;8051;50.820;4.884;2023-07-30T06:35:45;16.40;99.90
15906;DHT22;8051;50.820;4.884;2023-07-30T06:38:13;16.40;99.90
15906;DHT22;8051;50.820;4.884;2023-07-30T06:40:40;16.40;99.90
15906;DHT22;8051;50.820;4.884;2023-07-30T06:43:08;16.30;99.90
15906;DHT22;8051;50.820;4.884;2023-07-30T06:45:35;16.40;99.90
15906;DHT22;8051;50.820;4.884;2023-07-30T06:48:04;16.40;99.90
15906;DHT22;8051;50.820;4.884;2023-07-30T06:50:32;16.40;99.90
15906;DHT22;8051;50.820;4.884;2023-07-30T06:52:59;16.50;99.90
15906;DHT22;8051;50.820;4.884;2023-07-30T06:55:27;16.70;99.90
15906;DHT22;8051;50.820;4.884;2023-07-30T06:57:54;16.70;99.90
15906;DHT22;8051;50.820;4.884;2023-07-30T07:00:22;16.80;99.90
15906;DHT22;8051;50.820;4.884;2023-07-30T07:02:49;16.80;99.90
15906;DHT22;8051;50.820;4.884;2023-07-30T07:05:18;16.80;99.90
15906;DHT22;8051;50.820;4.884;2023-07-30T07:07:46;16.90;99.90
15906;DHT22;8051;50.820;4.884;2023-07-30T07:10:13;16.90;99.90
15906;DHT22;8051;50.820;4.884;2023-07-30T07:12:41;17.00;99.90
15906;DHT22;8051;50.820;4.884;2023-07-30T07:15:08;16.80;99.90
15906;DHT22;8051;50.820;4.884;2023-07-30T07:17:36;16.80;99.90
15906;DHT22;8051;50.820;4.884;2023-07-30T07:20:04;16.70;99.90
15906;DHT22;8051;50.820;4.884;2023-07-30T07:22:34;16.80;99.90
15906;DHT22;8051;50.820;4.884;2023-07-30T07:25:02;17.00;99.90
15906;DHT22;8051;50.820;4.884;2023-07-30T07:27:30;17.20;99.90
15906;DHT22;8051;50.820;4.884;2023-07-30T07:29:57;17.40;99.90
15906;DHT22;8051;50.820;4.884;2023-07-30T07:32:25;17.60;99.90
15906;DHT22;8051;50.820;4.884;2023-07-30T07:34:52;17.80;99.90
15906;DHT22;8051;50.820;4.884;2023-07-30T07:37:20;18.00;99.90
15906;DHT22;8051;50.820;4.884;2023-07-30T07:39:49;18.40;99.90
15906;DHT22;8051;50.820;4.884;2023-07-30T07:42:17;18.40;99.90
15906;DHT22;8051;50.820;4.884;2023-07-30T07:44:44;18.30;99.90
15906;DHT22;8051;50.820;4.884;2023-07-30T07:47:12;18.30;99.90
15906;DHT22;8051;50.820;4.884;2023-07-30T07:49:40;18.40;99.90
15906;DHT22;8051;50.820;4.884;2023-07-30T07:52:08;18.60;99.90
15906;DHT22;8051;50.820;4.884;2023-07-30T07:54:35;18.70;99.90
15906;DHT22;8051;50.820;4.884;2023-07-30T07:57:04;18.70;99.90
15906;DHT22;8051;50.820;4.884;2023-07-30T07:59:31;18.90;99.90
15906;DHT22;8051;50.820;4.884;2023-07-30T08:01:59;19.00;99.90
15906;DHT22;8051;50.820;4.884;2023-07-30T08:04:26;19.00;99.90
15906;DHT22;8051;50.820;4.884;2023-07-30T08:06:54;18.80;99.90
15906;DHT22;8051;50.820;4.884;2023-07-30T08:09:25;18.70;99.90
15906;DHT22;8051;50.820;4.884;2023-07-30T08:11:53;18.70;99.90
15906;DHT22;8051;50.820;4.884;2023-07-30T08:14:22;18.70;99.90
15906;DHT22;8051;50.820;4.884;2023-07-30T08:16:49;18.80;99.90
15906;DHT22;8051;50.820;4.884;2023-07-30T08:19:16;18.90;99.90
15906;DHT22;8051;50.820;4.884;2023-07-30T08:21:43;18.90;99.90
15906;DHT22;8051;50.820;4.884;2023-07-30T08:24:11;18.80;99.90
15906;DHT22;8051;50.820;4.884;2023-07-30T08:26:38;18.90;99.90
15906;DHT22;8051;50.820;4.884;2023-07-30T08:29:06;19.00;99.90
15906;DHT22;8051;50.820;4.884;2023-07-30T08:31:37;19.00;99.90
15906;DHT22;8051;50.820;4.884;2023-07-30T08:34:05;19.10;99.90
15906;DHT22;8051;50.820;4.884;2023-07-30T08:36:32;19.20;99.90
15906;DHT22;8051;50.820;4.884;2023-07-30T08:39:00;19.70;99.90
15906;DHT22;8051;50.820;4.884;2023-07-30T08:41:30;20.10;99.90
15906;DHT22;8051;50.820;4.884;2023-07-30T08:43:57;20.30;99.90
15906;DHT22;8051;50.820;4.884;2023-07-30T08:46:25;20.30;99.90
15906;DHT22;8051;50.820;4.884;2023-07-30T08:48:54;20.30;99.90
15906;DHT22;8051;50.820;4.884;2023-07-30T08:51:23;20.30;99.90
15906;DHT22;8051;50.820;4.884;2023-07-30T08:53:51;20.20;99.90
15906;DHT22;8051;50.820;4.884;2023-07-30T08:56:19;20.10;99.90
15906;DHT22;8051;50.820;4.884;2023-07-30T08:58:47;20.10;99.90
15906;DHT22;8051;50.820;4.884;2023-07-30T09:01:18;20.20;99.90
15906;DHT22;8051;50.820;4.884;2023-07-30T09:03:48;20.00;99.90
15906;DHT22;8051;50.820;4.884;2023-07-30T09:06:18;19.90;99.90
15906;DHT22;8051;50.820;4.884;2023-07-30T09:08:45;19.90;99.90
15906;DHT22;8051;50.820;4.884;2023-07-30T09:11:13;20.00;99.90
15906;DHT22;8051;50.820;4.884;2023-07-30T09:13:41;20.30;99.90
15906;DHT22;8051;50.820;4.884;2023-07-30T09:16:09;20.30;99.90
15906;DHT22;8051;50.820;4.884;2023-07-30T09:18:42;20.20;99.90
15906;DHT22;8051;50.820;4.884;2023-07-30T09:21:11;20.30;99.90
15906;DHT22;8051;50.820;4.884;2023-07-30T09:23:43;20.50;99.90
15906;DHT22;8051;50.820;4.884;2023-07-30T09:26:12;20.40;99.90
15906;DHT22;8051;50.820;4.884;2023-07-30T09:28:40;20.30;99.90
15906;DHT22;8051;50.820;4.884;2023-07-30T09:31:08;20.30;99.90
15906;DHT22;8051;50.820;4.884;2023-07-30T09:33:41;20.50;99.90
15906;DHT22;8051;50.820;4.884;2023-07-30T09:36:09;20.50;99.90
15906;DHT22;8051;50.820;4.884;2023-07-30T09:38:39;20.60;99.90
15906;DHT22;8051;50.820;4.884;2023-07-30T09:41:08;20.90;99.90
15906;DHT22;8051;50.820;4.884;2023-07-30T09:43:37;21.00;99.90
15906;DHT22;8051;50.820;4.884;2023-07-30T09:46:06;20.50;99.90
15906;DHT22;8051;50.820;4.884;2023-07-30T09:48:34;20.10;99.90
15906;DHT22;8051;50.820;4.884;2023-07-30T09:51:03;20.00;99.90
15906;DHT22;8051;50.820;4.884;2023-07-30T09:53:32;20.00;99.90
15906;DHT22;8051;50.820;4.884;2023-07-30T09:56:01;19.80;99.90
15906;DHT22;8051;50.820;4.884;2023-07-30T09:58:30;19.40;99.90
15906;DHT22;8051;50.820;4.884;2023-07-30T10:00:58;19.20;99.90
15906;DHT22;8051;50.820;4.884;2023-07-30T10:03:27;18.80;99.90
15906;DHT22;8051;50.820;4.884;2023-07-30T10:06:00;18.70;99.90
15906;DHT22;8051;50.820;4.884;2023-07-30T10:08:34;18.80;99.90
15906;DHT22;8051;50.820;4.884;2023-07-30T10:11:03;19.00;99.90
15906;DHT22;8051;50.820;4.884;2023-07-30T10:13:35;19.40;99.90
15906;DHT22;8051;50.820;4.884;2023-07-30T10:16:03;19.80;99.90
15906;DHT22;8051;50.820;4.884;2023-07-30T10:18:38;20.00;99.90
15906;DHT22;8051;50.820;4.884;2023-07-30T10:21:07;20.10;99.90
15906;DHT22;8051;50.820;4.884;2023-07-30T10:23:36;20.10;99.90
15906;DHT22;8051;50.820;4.884;2023-07-30T10:26:12;20.20;99.90
15906;DHT22;8051;50.820;4.884;2023-07-30T10:28:41;20.20;99.90
15906;DHT22;8051;50.820;4.884;2023-07-30T10:31:09;20.20;99.90
15906;DHT22;8051;50.820;4.884;2023-07-30T10:33:46;20.10;99.90
15906;DHT22;8051;50.820;4.884;2023-07-30T10:36:16;19.80;99.90
15906;DHT22;8051;50.820;4.884;2023-07-30T10:38:44;19.70;99.90
15906;DHT22;8051;50.820;4.884;2023-07-30T10:41:13;19.70;99.90
15906;DHT22;8051;50.820;4.884;2023-07-30T10:43:46;20.00;99.90
15906;DHT22;8051;50.820;4.884;2023-07-30T10:46:15;20.20;99.90
15906;DHT22;8051;50.820;4.884;2023-07-30T10:48:44;20.40;99.90
15906;DHT22;8051;50.820;4.884;2023-07-30T10:51:13;20.70;99.90
15906;DHT22;8051;50.820;4.884;2023-07-30T10:53:42;20.60;99.90
15906;DHT22;8051;50.820;4.884;2023-07-30T10:56:10;20.80;99.90
15906;DHT22;8051;50.820;4.884;2023-07-30T10:58:39;21.00;99.90
15906;DHT22;8051;50.820;4.884;2023-07-30T11:01:09;21.00;99.90
15906;DHT22;8051;50.820;4.884;2023-07-30T11:03:36;20.80;99.90
15906;DHT22;8051;50.820;4.884;2023-07-30T11:06:05;20.70;99.90
15906;DHT22;8051;50.820;4.884;2023-07-30T11:08:36;20.60;99.90
15906;DHT22;8051;50.820;4.884;2023-07-30T11:11:04;20.70;99.90
15906;DHT22;8051;50.820;4.884;2023-07-30T11:13:35;20.70;99.90
15906;DHT22;8051;50.820;4.884;2023-07-30T11:16:05;21.20;99.90
15906;DHT22;8051;50.820;4.884;2023-07-30T11:18:34;21.90;99.90
15906;DHT22;8051;50.820;4.884;2023-07-30T11:21:05;22.10;99.90
15906;DHT22;8051;50.820;4.884;2023-07-30T11:23:33;21.70;99.90
15906;DHT22;8051;50.820;4.884;2023-07-30T11:26:02;21.30;99.90
15906;DHT22;8051;50.820;4.884;2023-07-30T11:28:31;21.10;99.90
15906;DHT22;8051;50.820;4.884;2023-07-30T11:30:59;20.90;99.90
15906;DHT22;8051;50.820;4.884;2023-07-30T11:33:28;20.70;99.90
15906;DHT22;8051;50.820;4.884;2023-07-30T11:35:57;20.60;99.90
15906;DHT22;8051;50.820;4.884;2023-07-30T11:38:25;20.80;99.90
15906;DHT22;8051;50.820;4.884;2023-07-30T11:40:53;20.90;99.90
15906;DHT22;8051;50.820;4.884;2023-07-30T11:43:22;20.90;99.90
15906;DHT22;8051;50.820;4.884;2023-07-30T11:46:06;20.90;99.90
15906;DHT22;8051;50.820;4.884;2023-07-30T11:48:34;20.80;99.90
15906;DHT22;8051;50.820;4.884;2023-07-30T11:51:04;20.80;99.90
15906;DHT22;8051;50.820;4.884;2023-07-30T11:53:44;20.80;99.90
15906;DHT22;8051;50.820;4.884;2023-07-30T11:56:16;20.80;99.90
15906;DHT22;8051;50.820;4.884;2023-07-30T11:58:44;21.00;99.90
15906;DHT22;8051;50.820;4.884;2023-07-30T12:01:12;21.40;99.90
15906;DHT22;8051;50.820;4.884;2023-07-30T12:03:40;21.90;99.90
15906;DHT22;8051;50.820;4.884;2023-07-30T12:06:10;22.20;99.90
15906;DHT22;8051;50.820;4.884;2023-07-30T12:08:38;22.10;99.90
15906;DHT22;8051;50.820;4.884;2023-07-30T12:11:07;22.10;99.90
15906;DHT22;8051;50.820;4.884;2023-07-30T12:13:41;21.90;99.90
15906;DHT22;8051;50.820;4.884;2023-07-30T12:16:09;22.00;99.90
15906;DHT22;8051;50.820;4.884;2023-07-30T12:18:38;22.40;99.90
15906;DHT22;8051;50.820;4.884;2023-07-30T12:21:05;22.40;99.90
15906;DHT22;8051;50.820;4.884;2023-07-30T12:23:35;22.50;99.90
15906;DHT22;8051;50.820;4.884;2023-07-30T12:26:03;22.80;99.90
15906;DHT22;8051;50.820;4.884;2023-07-30T12:28:32;23.00;99.90
15906;DHT22;8051;50.820;4.884;2023-07-30T12:31:00;23.10;99.90
15906;DHT22;8051;50.820;4.884;2023-07-30T12:33:27;23.20;99.90
15906;DHT22;8051;50.820;4.884;2023-07-30T12:35:55;23.20;99.90
15906;DHT22;8051;50.820;4.884;2023-07-30T12:38:22;23.10;99.90
15906;DHT22;8051;50.820;4.884;2023-07-30T12:40:51;22.80;99.90
15906;DHT22;8051;50.820;4.884;2023-07-30T12:43:19;22.70;99.90
15906;DHT22;8051;50.820;4.884;2023-07-30T12:45:47;22.60;99.90
15906;DHT22;8051;50.820;4.884;2023-07-30T12:48:14;22.90;99.90
15906;DHT22;8051;50.820;4.884;2023-07-30T12:50:42;23.10;99.90
15906;DHT22;8051;50.820;4.884;2023-07-30T12:53:09;23.10;99.90
15906;DHT22;8051;50.820;4.884;2023-07-30T12:55:36;23.00;99.90
15906;DHT22;8051;50.820;4.884;2023-07-30T12:58:06;23.00;99.90
15906;DHT22;8051;50.820;4.884;2023-07-30T13:00:34;23.00;99.90
15906;DHT22;8051;50.820;4.884;2023-07-30T13:03:01;23.00;99.90
15906;DHT22;8051;50.820;4.884;2023-07-30T13:05:29;23.10;99.90
15906;DHT22;8051;50.820;4.884;2023-07-30T13:07:56;23.00;99.90
15906;DHT22;8051;50.820;4.884;2023-07-30T13:10:24;23.00;99.90
15906;DHT22;8051;50.820;4.884;2023-07-30T13:12:51;23.20;99.90
15906;DHT22;8051;50.820;4.884;2023-07-30T13:15:20;23.10;99.90
15906;DHT22;8051;50.820;4.884;2023-07-30T13:17:47;23.10;99.90
15906;DHT22;8051;50.820;4.884;2023-07-30T13:20:15;23.10;99.90
15906;DHT22;8051;50.820;4.884;2023-07-30T13:22:42;23.10;99.90
15906;DHT22;8051;50.820;4.884;2023-07-30T13:25:10;23.30;99.90
15906;DHT22;8051;50.820;4.884;2023-07-30T13:27:37;23.60;99.90
15906;DHT22;8051;50.820;4.884;2023-07-30T13:30:06;23.60;99.90
15906;DHT22;8051;50.820;4.884;2023-07-30T13:32:35;23.50;99.90
15906;DHT22;8051;50.820;4.884;2023-07-30T13:35:02;23.60;99.90
15906;DHT22;8051;50.820;4.884;2023-07-30T13:37:30;23.50;99.90
15906;DHT22;8051;50.820;4.884;2023-07-30T13:39:57;23.10;99.90
15906;DHT22;8051;50.820;4.884;2023-07-30T13:42:25;22.80;99.90
15906;DHT22;8051;50.820;4.884;2023-07-30T13:44:52;23.10;99.90
15906;DHT22;8051;50.820;4.884;2023-07-30T13:47:20;23.20;99.90
15906;DHT22;8051;50.820;4.884;2023-07-30T13:49:49;23.00;99.90
15906;DHT22;8051;50.820;4.884;2023-07-30T13:52:16;23.20;99.90
15906;DHT22;8051;50.820;4.884;2023-07-30T13:54:43;23.40;99.90
15906;DHT22;8051;50.820;4.884;2023-07-30T13:57:11;23.40;99.90
15906;DHT22;8051;50.820;4.884;2023-07-30T13:59:39;23.10;99.90
15906;DHT22;8051;50.820;4.884;2023-07-30T14:02:10;22.90;99.90
15906;DHT22;8051;50.820;4.884;2023-07-30T14:04:37;23.10;99.90
15906;DHT22;8051;50.820;4.884;2023-07-30T14:07:06;23.40;99.90
15906;DHT22;8051;50.820;4.884;2023-07-30T14:09:34;23.60;99.90
15906;DHT22;8051;50.820;4.884;2023-07-30T14:12:02;23.60;99.90
15906;DHT22;8051;50.820;4.884;2023-07-30T14:14:30;23.70;99.90
15906;DHT22;8051;50.820;4.884;2023-07-30T14:16:58;23.50;99.90
15906;DHT22;8051;50.820;4.884;2023-07-30T14:19:26;23.40;99.90
15906;DHT22;8051;50.820;4.884;2023-07-30T14:21:55;23.40;99.90
15906;DHT22;8051;50.820;4.884;2023-07-30T14:24:24;23.50;99.90
15906;DHT22;8051;50.820;4.884;2023-07-30T14:26:52;23.50;99.90
15906;DHT22;8051;50.820;4.884;2023-07-30T14:29:19;23.50;99.90
15906;DHT22;8051;50.820;4.884;2023-07-30T14:31:47;23.90;99.90
15906;DHT22;8051;50.820;4.884;2023-07-30T14:34:14;24.10;99.90
15906;DHT22;8051;50.820;4.884;2023-07-30T14:36:42;23.90;99.90
15906;DHT22;8051;50.820;4.884;2023-07-30T14:39:09;24.00;99.90
15906;DHT22;8051;50.820;4.884;2023-07-30T14:41:38;23.90;99.90
15906;DHT22;8051;50.820;4.884;2023-07-30T14:44:05;24.00;99.90
15906;DHT22;8051;50.820;4.884;2023-07-30T14:46:33;24.10;99.90
15906;DHT22;8051;50.820;4.884;2023-07-30T14:49:00;23.60;99.90
15906;DHT22;8051;50.820;4.884;2023-07-30T14:51:28;23.30;99.90
15906;DHT22;8051;50.820;4.884;2023-07-30T14:53:55;23.10;99.90
15906;DHT22;8051;50.820;4.884;2023-07-30T14:56:23;23.00;99.90
15906;DHT22;8051;50.820;4.884;2023-07-30T14:58:52;23.00;99.90
15906;DHT22;8051;50.820;4.884;2023-07-30T15:01:19;23.00;99.90
15906;DHT22;8051;50.820;4.884;2023-07-30T15:03:47;23.20;99.90
15906;DHT22;8051;50.820;4.884;2023-07-30T15:06:14;23.60;99.90
15906;DHT22;8051;50.820;4.884;2023-07-30T15:08:42;23.70;99.90
15906;DHT22;8051;50.820;4.884;2023-07-30T15:11:10;23.60;99.90
15906;DHT22;8051;50.820;4.884;2023-07-30T15:13:39;23.30;99.90
15906;DHT22;8051;50.820;4.884;2023-07-30T15:16:08;23.40;99.90
15906;DHT22;8051;50.820;4.884;2023-07-30T15:18:35;23.40;99.90
15906;DHT22;8051;50.820;4.884;2023-07-30T15:21:03;23.30;99.90
15906;DHT22;8051;50.820;4.884;2023-07-30T15:23:30;23.00;99.90
15906;DHT22;8051;50.820;4.884;2023-07-30T15:25:58;22.60;99.90
15906;DHT22;8051;50.820;4.884;2023-07-30T15:28:25;22.40;99.90
15906;DHT22;8051;50.820;4.884;2023-07-30T15:30:52;22.20;99.90
15906;DHT22;8051;50.820;4.884;2023-07-30T15:33:21;22.20;99.90
15906;DHT22;8051;50.820;4.884;2023-07-30T15:35:49;22.10;99.90
15906;DHT22;8051;50.820;4.884;2023-07-30T15:38:16;21.60;99.90
15906;DHT22;8051;50.820;4.884;2023-07-30T15:40:44;21.40;99.90
15906;DHT22;8051;50.820;4.884;2023-07-30T15:43:12;21.20;99.90
15906;DHT22;8051;50.820;4.884;2023-07-30T15:45:39;21.10;99.90
15906;DHT22;8051;50.820;4.884;2023-07-30T15:48:09;21.10;99.90
15906;DHT22;8051;50.820;4.884;2023-07-30T15:50:38;21.00;99.90